Map

Track Data

SID SEASON NUMBER BASIN SUBBASIN NAME ISO_TIME NATURE LAT LON WMO_WIND WMO_PRES WMO_AGENCY TRACK_TYPE DIST2LAND LANDFALL IFLAG USA_AGENCY USA_ATCF_ID USA_LAT USA_LON USA_RECORD USA_STATUS USA_WIND USA_PRES USA_SSHS USA_R34_NE USA_R34_SE USA_R34_SW USA_R34_NW USA_R50_NE USA_R50_SE USA_R50_SW USA_R50_NW USA_R64_NE USA_R64_SE USA_R64_SW USA_R64_NW USA_POCI USA_ROCI USA_RMW USA_EYE TOKYO_LAT TOKYO_LON TOKYO_GRADE TOKYO_WIND TOKYO_PRES TOKYO_R50_DIR TOKYO_R50_LONG TOKYO_R50_SHORT TOKYO_R30_DIR TOKYO_R30_LONG TOKYO_R30_SHORT TOKYO_LAND CMA_LAT CMA_LON CMA_CAT CMA_WIND CMA_PRES HKO_LAT HKO_LON HKO_CAT HKO_WIND HKO_PRES NEWDELHI_LAT NEWDELHI_LON NEWDELHI_GRADE NEWDELHI_WIND NEWDELHI_PRES NEWDELHI_CI NEWDELHI_DP NEWDELHI_POCI REUNION_LAT REUNION_LON REUNION_TYPE REUNION_WIND REUNION_PRES REUNION_TNUM REUNION_CI REUNION_RMW REUNION_R34_NE REUNION_R34_SE REUNION_R34_SW REUNION_R34_NW REUNION_R50_NE REUNION_R50_SE REUNION_R50_SW REUNION_R50_NW REUNION_R64_NE REUNION_R64_SE REUNION_R64_SW REUNION_R64_NW BOM_LAT BOM_LON BOM_TYPE BOM_WIND BOM_PRES BOM_TNUM BOM_CI BOM_RMW BOM_R34_NE BOM_R34_SE BOM_R34_SW BOM_R34_NW BOM_R50_NE BOM_R50_SE BOM_R50_SW BOM_R50_NW BOM_R64_NE BOM_R64_SE BOM_R64_SW BOM_R64_NW BOM_ROCI BOM_POCI BOM_EYE BOM_POS_METHOD BOM_PRES_METHOD NADI_LAT NADI_LON NADI_CAT NADI_WIND NADI_PRES WELLINGTON_LAT WELLINGTON_LON WELLINGTON_WIND WELLINGTON_PRES DS824_LAT DS824_LON DS824_STAGE DS824_WIND DS824_PRES TD9636_LAT TD9636_LON TD9636_STAGE TD9636_WIND TD9636_PRES TD9635_LAT TD9635_LON TD9635_WIND TD9635_PRES TD9635_ROCI NEUMANN_LAT NEUMANN_LON NEUMANN_CLASS NEUMANN_WIND NEUMANN_PRES MLC_LAT MLC_LON MLC_CLASS MLC_WIND MLC_PRES USA_GUST BOM_GUST BOM_GUST_PER REUNION_GUST REUNION_GUST_PER USA_SEAHGT USA_SEARAD_NE USA_SEARAD_SE USA_SEARAD_SW USA_SEARAD_NW STORM_SPEED STORM_DIR
1874245N20265 1874 16 NA GM NOT_NAMED 1874-09-02 00:00:00 TS 20.4000 -94.6000 40 hurdat_atl main 196 179 O_____________ hurdat_atl AL041874 20.4000 -94.6000 TS 40 0 5 302
1874245N20265 1874 16 NA GM NOT_NAMED 1874-09-02 03:00:00 TS 20.5251 -94.8100 main 179 165 P_____________ AL041874 20.5251 -94.8100 TS 40 0 5 309
1874245N20265 1874 16 NA GM NOT_NAMED 1874-09-02 06:00:00 TS 20.7000 -95.0000 40 hurdat_atl main 171 168 O_____________ hurdat_atl AL041874 20.7000 -95.0000 TS 40 0 5 323
1874245N20265 1874 16 NA GM NOT_NAMED 1874-09-02 09:00:00 TS 20.9500 -95.1575 main 167 167 P_____________ AL041874 20.9500 -95.1575 TS 40 0 6 331
1874245N20265 1874 16 NA GM NOT_NAMED 1874-09-02 12:00:00 TS 21.2000 -95.3000 40 hurdat_atl main 182 182 O_____________ hurdat_atl AL041874 21.2000 -95.3000 TS 40 0 5 326
1874245N20265 1874 16 NA GM NOT_NAMED 1874-09-02 15:00:00 TS 21.3500 -95.4501 main 175 175 P_____________ AL041874 21.3500 -95.4501 TS 40 0 4 317
1874245N20265 1874 16 NA GM NOT_NAMED 1874-09-02 18:00:00 TS 21.5000 -95.6000 40 hurdat_atl main 176 165 O_____________ hurdat_atl AL041874 21.5000 -95.6000 TS 40 0 5 325
1874245N20265 1874 16 NA GM NOT_NAMED 1874-09-02 21:00:00 TS 21.7425 -95.7500 main 165 148 P_____________ AL041874 21.7425 -95.7500 TS 40 0 6 331
1874245N20265 1874 16 NA GM NOT_NAMED 1874-09-03 00:00:00 TS 22.0000 -95.9000 40 hurdat_atl main 151 145 O_____________ hurdat_atl AL041874 22.0000 -95.9000 TS 40 0 5 329
1874245N20265 1874 16 NA GM NOT_NAMED 1874-09-03 03:00:00 TS 22.2000 -96.0501 main 140 137 P_____________ AL041874 22.2000 -96.0501 TS 40 0 5 325
1874245N20265 1874 16 NA GM NOT_NAMED 1874-09-03 06:00:00 TS 22.4000 -96.2000 40 hurdat_atl main 144 144 O_____________ hurdat_atl AL041874 22.4000 -96.2000 TS 40 0 5 328
1874245N20265 1874 16 NA GM NOT_NAMED 1874-09-03 09:00:00 TS 22.6425 -96.3500 main 143 133 P_____________ AL041874 22.6425 -96.3500 TS 40 0 6 331
1874245N20265 1874 16 NA GM NOT_NAMED 1874-09-03 12:00:00 TS 22.9000 -96.5000 40 hurdat_atl main 133 122 O_____________ hurdat_atl AL041874 22.9000 -96.5000 TS 40 0 6 331
1874245N20265 1874 16 NA GM NOT_NAMED 1874-09-03 15:00:00 TS 23.1500 -96.6501 main 112 102 P_____________ AL041874 23.1500 -96.6501 TS 40 0 6 331
1874245N20265 1874 16 NA GM NOT_NAMED 1874-09-03 18:00:00 TS 23.4000 -96.8000 40 hurdat_atl main 102 91 O_____________ hurdat_atl AL041874 23.4000 -96.8000 TS 40 0 6 331
1874245N20265 1874 16 NA GM NOT_NAMED 1874-09-03 21:00:00 TS 23.6500 -96.9501 main 81 71 P_____________ AL041874 23.6500 -96.9501 TS 45 0 6 331
1874245N20265 1874 16 NA GM NOT_NAMED 1874-09-04 00:00:00 TS 23.9000 -97.1000 50 hurdat_atl main 71 60 O_____________ hurdat_atl AL041874 23.9000 -97.1000 TS 50 0 6 330
1874245N20265 1874 16 NA GM NOT_NAMED 1874-09-04 03:00:00 TS 24.1425 -97.2575 main 50 32 P_____________ AL041874 24.1425 -97.2575 TS 50 0 6 331
1874245N20265 1874 16 NA GM NOT_NAMED 1874-09-04 06:00:00 TS 24.4000 -97.4000 50 hurdat_atl main 32 20 O_____________ hurdat_atl AL041874 24.4000 -97.4000 TS 50 0 6 338
1874245N20265 1874 16 NA GM NOT_NAMED 1874-09-04 09:00:00 TS 24.7000 -97.5076 main 20 0 P_____________ AL041874 24.7000 -97.5076 TS 50 0 6 343
1874245N20265 1874 16 NA NA NOT_NAMED 1874-09-04 12:00:00 TS 25.0000 -97.6000 50 hurdat_atl main 10 0 O_____________ hurdat_atl AL041874 25.0000 -97.6000 TS 50 0 6 343
1874245N20265 1874 16 NA NA NOT_NAMED 1874-09-04 15:00:00 TS 25.2500 -97.7001 main 0 0 P_____________ AL041874 25.2500 -97.7001 TS 50 0 5 340
1874245N20265 1874 16 NA NA NOT_NAMED 1874-09-04 18:00:00 TS 25.5000 -97.8000 50 hurdat_atl main 0 0 O_____________ hurdat_atl AL041874 25.5000 -97.8000 TS 50 0 6 341
1874245N20265 1874 16 NA NA NOT_NAMED 1874-09-04 21:00:00 TS 25.7925 -97.9075 main 0 0 P_____________ AL041874 25.7925 -97.9075 TS 45 0 6 343
1874245N20265 1874 16 NA NA NOT_NAMED 1874-09-05 00:00:00 TS 26.1000 -98.0000 40 hurdat_atl main 0 0 O_____________ hurdat_atl AL041874 26.1000 -98.0000 TS 40 0 6 347
1874245N20265 1874 16 NA NA NOT_NAMED 1874-09-05 03:00:00 TS 26.4000 -98.0576 main 0 0 P_____________ AL041874 26.4000 -98.0576 TS 40 0 6 352
1874245N20265 1874 16 NA NA NOT_NAMED 1874-09-05 06:00:00 TS 26.7000 -98.1000 40 hurdat_atl main 0 0 O_____________ hurdat_atl AL041874 26.7000 -98.1000 TS 40 0 6 352
1874245N20265 1874 16 NA NA NOT_NAMED 1874-09-05 09:00:00 TS 27.0075 -98.1500 main 0 0 P_____________ AL041874 27.0075 -98.1500 TS 35 0 6 352
1874245N20265 1874 16 NA NA NOT_NAMED 1874-09-05 12:00:00 TS 27.3000 -98.2000 30 hurdat_atl main 0 0 O_____________ hurdat_atl AL041874 27.3000 -98.2000 TD 30 -1 6 351
1874245N20265 1874 16 NA NA NOT_NAMED 1874-09-05 15:00:00 TS 27.5575 -98.2500 main 0 0 P_____________ AL041874 27.5575 -98.2500 TD 30 -1 5 350
1874245N20265 1874 16 NA NA NOT_NAMED 1874-09-05 18:00:00 TS 27.8000 -98.3000 30 hurdat_atl main 0 0 O_____________ hurdat_atl AL041874 27.8000 -98.3000 TD 30 -1 5 350
1874245N20265 1874 16 NA NA NOT_NAMED 1874-09-05 21:00:00 TS 28.0500 -98.3500 main 0 0 P_____________ AL041874 28.0500 -98.3500 TD 30 -1 5 350
1874245N20265 1874 16 NA NA NOT_NAMED 1874-09-06 00:00:00 TS 28.3000 -98.4000 30 hurdat_atl main 0 0 O_____________ hurdat_atl AL041874 28.3000 -98.4000 TD 30 -1 5 349
1874245N20265 1874 16 NA NA NOT_NAMED 1874-09-06 03:00:00 TS 28.5575 -98.4575 main 0 0 P_____________ AL041874 28.5575 -98.4575 TD 30 -1 5 350
1874245N20265 1874 16 NA NA NOT_NAMED 1874-09-06 06:00:00 TS 28.8000 -98.5000 30 hurdat_atl main 0 0 O_____________ hurdat_atl AL041874 28.8000 -98.5000 TD 30 -1 4 355
1874245N20265 1874 16 NA NA NOT_NAMED 1874-09-06 09:00:00 TS 29.0000 -98.5076 main 0 0 P_____________ AL041874 29.0000 -98.5076 TD 30 -1 4 0
1874245N20265 1874 16 NA NA NOT_NAMED 1874-09-06 12:00:00 TS 29.2000 -98.5000 30 hurdat_atl main 0 0 O_____________ hurdat_atl AL041874 29.2000 -98.5000 TD 30 -1 4 2
1874245N20265 1874 16 NA NA NOT_NAMED 1874-09-06 15:00:00 TS 29.4350 -98.5000 main 0 0 P_____________ AL041874 29.4350 -98.5000 TD 30 -1 5 2
1874245N20265 1874 16 NA NA NOT_NAMED 1874-09-06 18:00:00 TS 29.7000 -98.5000 30 hurdat_atl main 0 0 O_____________ hurdat_atl AL041874 29.7000 -98.5000 TD 30 -1 6 0
1874245N20265 1874 16 NA NA NOT_NAMED 1874-09-06 21:00:00 TS 29.9850 -98.5074 main 0 0 P_____________ AL041874 29.9850 -98.5074 TD 30 -1 6 1
1874245N20265 1874 16 NA NA NOT_NAMED 1874-09-07 00:00:00 TS 30.3000 -98.5000 30 hurdat_atl main 0 0 O_____________ hurdat_atl AL041874 30.3000 -98.5000 TD 30 -1 7 5
1874245N20265 1874 16 NA NA NOT_NAMED 1874-09-07 03:00:00 TS 30.6425 -98.4501 main 0 0 P_____________ AL041874 30.6425 -98.4501 TD 30 -1 7 7
1874245N20265 1874 16 NA NA NOT_NAMED 1874-09-07 06:00:00 TS 31.0000 -98.4000 30 hurdat_atl main 0 0 O_____________ hurdat_atl AL041874 31.0000 -98.4000 TD 30 -1 7 3
1874245N20265 1874 16 NA NA NOT_NAMED 1874-09-07 09:00:00 TS 31.3425 -98.3998 main 0 0 P_____________ AL041874 31.3425 -98.3998 TD 30 -1 7 0
1874245N20265 1874 16 NA NA NOT_NAMED 1874-09-07 12:00:00 TS 31.7000 -98.4000 30 hurdat_atl main 0 0 O_____________ hurdat_atl AL041874 31.7000 -98.4000 TD 30 -1 8 3
1874245N20265 1874 16 NA NA NOT_NAMED 1874-09-07 15:00:00 TS 32.0900 -98.3627 main 0 0 P_____________ AL041874 32.0900 -98.3627 TD 30 -1 8 6
1874245N20265 1874 16 NA NA NOT_NAMED 1874-09-07 18:00:00 TS 32.5000 -98.3000 30 hurdat_atl main 0 O_____________ hurdat_atl AL041874 32.5000 -98.3000 TD 30 -1 8 7

About IBTrACS Database

This database is a web-friendly format of International Best Track Archive for Climate Stewardship (IBTrACS), a global best track data archive curated by NOAA dating back to 1842.

Updated: 2021-12-03